Time;durP1;ratioP1;P1;durP2;ratioP2;P2;SDS_P1;SDS_P2;PMS_P1;PMS_P2;Temp;Humidity;BMP_temperature;BMP_pressure;BME280_temperature;BME280_humidity;BME280_pressure;Samples;Min_cycle;Max_cycle;Signal;HPM_P1;HPM_P2
2023/03/21 00:02:07;;;;;;;;;;;;;;;5.62;100.00;100284.53;5112701;28;19912;-70
2023/03/21 00:04:32;;;;;;;;;;;;;;;5.63;100.00;100286.19;5112739;28;19915;-66
2023/03/21 00:06:58;;;;;;;;;;;;;;;5.66;100.00;100299.13;5112599;28;19920;-68
2023/03/21 00:09:23;;;;;;;;;;;;;;;5.67;100.00;100295.50;5112517;28;19934;-70
2023/03/21 00:11:48;;;;;;;;;;;;;;;5.71;100.00;100296.88;5112364;28;20385;-69
2023/03/21 00:14:17;;;;;;;;;;;;;;;5.73;100.00;100294.09;5112721;28;19911;-69
2023/03/21 00:16:44;;;;;;;;;;;;;;;5.75;100.00;100290.31;5112416;28;19912;-67
2023/03/21 00:19:10;;;;;;;;;;;;;;;5.77;100.00;100291.00;5112378;28;20388;-68
2023/03/21 00:21:37;;;;;;;;;;;;;;;5.80;100.00;100293.41;5112210;28;19972;-67
2023/03/21 00:24:02;;;;;;;;;;;;;;;5.82;100.00;100294.09;5112460;28;20006;-68
2023/03/21 00:26:28;;;;;;;;;;;;;;;5.84;100.00;100288.66;5112299;28;20030;-67
2023/03/21 00:28:53;;;;;;;;;;;;;;;5.84;100.00;100286.84;5112763;28;19968;-68
2023/03/21 00:31:19;;;;;;;;;;;;;;;5.84;100.00;100281.56;5112448;28;19923;-68
2023/03/21 00:33:44;;;;;;;;;;;;;;;5.80;100.00;100288.09;5112450;28;19916;-68
2023/03/21 00:36:10;;;;;;;;;;;;;;;5.77;100.00;100277.81;5093998;28;19922;-67
2023/03/21 00:38:36;;;;;;;;;;;;;;;5.74;100.00;100275.44;5112237;28;19912;-71
2023/03/21 00:41:05;;;;;;;;;;;;;;;5.74;100.00;100275.44;5114391;28;19912;-69
2023/03/21 00:43:31;;;;;;;;;;;;;;;5.70;100.00;100275.88;5116202;28;20327;-69
2023/03/21 00:45:58;;;;;;;;;;;;;;;5.63;100.00;100270.34;5116662;28;19995;-66
2023/03/21 00:48:24;;;;;;;;;;;;;;;5.54;100.00;100264.13;5116991;28;19918;-70
2023/03/21 00:50:51;;;;;;;;;;;;;;;5.53;100.00;100266.91;5098421;28;19912;-69
2023/03/21 00:53:16;;;;;;;;;;;;;;;5.56;100.00;100272.72;5115776;28;19958;-70
2023/03/21 00:55:42;;;;;;;;;;;;;;;5.58;100.00;100269.94;5115993;28;19967;-67
2023/03/21 00:58:07;;;;;;;;;;;;;;;5.57;100.00;100265.63;5097838;28;20371;-69
2023/03/21 01:00:32;;;;;;;;;;;;;;;5.60;100.00;100268.00;5117832;28;19943;-69
2023/03/21 01:03:04;;;;;;;;;;;;;;;5.55;100.00;100264.94;5117049;28;20403;-69
2023/03/21 01:08:16;;;;;;;;;;;;;;;5.43;100.00;100260.78;5116570;28;20339;-66
2023/03/21 01:10:42;;;;;;;;;;;;;;;5.41;100.00;100262.72;5116808;28;19918;-68
2023/03/21 01:13:08;;;;;;;;;;;;;;;5.41;100.00;100270.66;5116821;28;19919;-69
2023/03/21 01:15:34;;;;;;;;;;;;;;;5.41;100.00;100263.56;5116139;28;19915;-69
2023/03/21 01:18:00;;;;;;;;;;;;;;;5.42;100.00;100265.22;5115570;28;19916;-66
2023/03/21 01:20:26;;;;;;;;;;;;;;;5.42;100.00;100269.69;5115444;28;19951;-67
2023/03/21 01:22:51;;;;;;;;;;;;;;;5.43;100.00;100271.34;5117470;28;19941;-66
2023/03/21 01:25:16;;;;;;;;;;;;;;;5.40;100.00;100275.09;5117967;28;19911;-68
2023/03/21 01:27:42;;;;;;;;;;;;;;;5.17;100.00;100281.66;5116713;28;20328;-68
2023/03/21 01:30:07;;;;;;;;;;;;;;;4.80;100.00;100289.41;5116841;28;20274;-68
2023/03/21 01:32:33;;;;;;;;;;;;;;;4.46;100.00;100291.56;5116643;28;19915;-69
2023/03/21 01:34:58;;;;;;;;;;;;;;;4.21;100.00;100303.44;5116822;28;20255;-67
2023/03/21 01:37:25;;;;;;;;;;;;;;;3.94;100.00;100306.63;5117330;28;19915;-68
2023/03/21 01:39:50;;;;;;;;;;;;;;;3.66;100.00;100313.41;5116834;28;19911;-68
2023/03/21 01:42:16;;;;;;;;;;;;;;;3.37;100.00;100313.22;5115234;28;20322;-68
2023/03/21 01:44:58;;;;;;;;;;;;;;;3.15;100.00;100316.75;5114929;28;19911;-70
2023/03/21 01:47:41;;;;;;;;;;;;;;;2.85;100.00;100327.16;5115459;28;19969;-68
2023/03/21 01:50:07;;;;;;;;;;;;;;;2.59;100.00;100322.19;5116783;28;19912;-68
2023/03/21 01:52:36;;;;;;;;;;;;;;;2.52;100.00;100317.53;5115889;28;19912;-69
2023/03/21 01:55:03;;;;;;;;;;;;;;;2.42;100.00;100341.09;5115347;28;19934;-68
2023/03/21 01:57:37;;;;;;;;;;;;;;;2.24;100.00;100329.41;5115537;28;19916;-69
2023/03/21 02:00:11;;;;;;;;;;;;;;;2.16;100.00;100336.09;5114802;28;19972;-70
2023/03/21 02:02:50;;;;;;;;;;;;;;;2.16;100.00;100330.84;5115191;28;19912;-68
2023/03/21 02:05:29;;;;;;;;;;;;;;;2.16;100.00;100338.72;5114516;28;19955;-67
2023/03/21 02:07:54;;;;;;;;;;;;;;;2.09;100.00;100340.16;5114623;28;19918;-69
2023/03/21 02:10:20;;;;;;;;;;;;;;;2.01;100.00;100333.78;5114408;28;20010;-69
2023/03/21 02:12:45;;;;;;;;;;;;;;;1.96;100.00;100338.56;5114207;28;20010;-67
2023/03/21 02:15:11;;;;;;;;;;;;;;;1.92;100.00;100332.72;5114497;28;19918;-67
2023/03/21 02:17:47;;;;;;;;;;;;;;;1.87;100.00;100334.88;5115064;28;19913;-70
2023/03/21 02:20:22;;;;;;;;;;;;;;;1.89;100.00;100335.59;5114090;28;20278;-68
2023/03/21 02:22:56;;;;;;;;;;;;;;;1.86;100.00;100322.69;5114241;28;19964;-68
2023/03/21 02:25:40;;;;;;;;;;;;;;;1.90;100.00;100326.75;5113785;28;19962;-69
2023/03/21 02:28:20;;;;;;;;;;;;;;;1.94;100.00;100325.56;5114207;28;19957;-69
2023/03/21 02:30:52;;;;;;;;;;;;;;;1.95;100.00;100327.22;5095695;28;20002;-68
2023/03/21 02:33:23;;;;;;;;;;;;;;;1.87;100.00;100319.13;5114034;28;19923;-68
2023/03/21 02:35:48;;;;;;;;;;;;;;;1.81;100.00;100335.34;5114084;28;19922;-67
2023/03/21 02:38:16;;;;;;;;;;;;;;;1.81;100.00;100330.94;5095660;28;19911;-67
2023/03/21 02:40:45;;;;;;;;;;;;;;;1.83;100.00;100325.56;5113996;28;20345;-69
2023/03/21 02:43:22;;;;;;;;;;;;;;;1.83;100.00;100329.03;5113878;28;19912;-68
2023/03/21 02:45:50;;;;;;;;;;;;;;;1.82;100.00;100339.66;5113762;28;19912;-67
2023/03/21 02:48:38;;;;;;;;;;;;;;;1.87;100.00;100334.88;5113375;28;20321;-67
2023/03/21 02:51:04;;;;;;;;;;;;;;;1.97;100.00;100335.81;5113826;28;20289;-66
2023/03/21 02:53:32;;;;;;;;;;;;;;;1.97;100.00;100341.09;5113989;28;20357;-70
2023/03/21 02:55:59;;;;;;;;;;;;;;;1.97;100.00;100335.81;5114557;28;19912;-67
2023/03/21 02:58:26;;;;;;;;;;;;;;;1.85;100.00;100328.91;5115074;28;19912;-69
2023/03/21 03:00:54;;;;;;;;;;;;;;;1.84;100.00;100333.31;5113940;28;19919;-68
2023/03/21 03:03:19;;;;;;;;;;;;;;;1.79;100.00;100332.84;5113513;28;19938;-70
2023/03/21 03:05:51;;;;;;;;;;;;;;;1.82;100.00;100329.16;5113961;28;20347;-69
2023/03/21 03:08:22;;;;;;;;;;;;;;;1.82;100.00;100337.00;5113651;28;19934;-67
2023/03/21 03:10:56;;;;;;;;;;;;;;;1.76;100.00;100327.00;5113605;28;19943;-68
2023/03/21 03:13:45;;;;;;;;;;;;;;;1.67;100.00;100327.66;5113839;28;20278;-67
2023/03/21 03:16:10;;;;;;;;;;;;;;;1.60;100.00;100322.06;5113689;28;20010;-68
2023/03/21 03:18:44;;;;;;;;;;;;;;;1.62;100.00;100335.06;5113356;28;19951;-67
2023/03/21 03:21:15;;;;;;;;;;;;;;;1.53;100.00;100326.94;5113322;28;19918;-67
2023/03/21 03:23:53;;;;;;;;;;;;;;;1.56;100.00;100331.13;5113524;28;19911;-70
2023/03/21 03:26:36;;;;;;;;;;;;;;;1.59;100.00;100324.78;5113265;28;19912;-70
2023/03/21 03:29:11;;;;;;;;;;;;;;;1.55;100.00;100334.69;5113293;28;19981;-66
2023/03/21 03:31:59;;;;;;;;;;;;;;;1.53;100.00;100342.69;5114839;28;19912;-68
2023/03/21 03:34:28;;;;;;;;;;;;;;;1.59;100.00;100337.91;5086065;28;20247;-65
2023/03/21 03:36:56;;;;;;;;;;;;;;;1.58;100.00;100338.88;5094393;28;20046;-67
2023/03/21 03:39:24;;;;;;;;;;;;;;;1.52;100.00;100350.66;5093175;28;19918;-70
2023/03/21 03:41:53;;;;;;;;;;;;;;;1.38;100.00;100350.84;5094063;28;19912;-65
2023/03/21 03:44:19;;;;;;;;;;;;;;;1.38;100.00;100343.81;5092590;28;19919;-70
2023/03/21 03:46:49;;;;;;;;;;;;;;;1.37;100.00;100344.75;5093056;28;20282;-67
2023/03/21 03:49:18;;;;;;;;;;;;;;;1.35;100.00;100349.28;5092538;28;20279;-66
2023/03/21 03:52:18;;;;;;;;;;;;;;;1.26;100.00;100357.84;5092558;28;19913;-67
2023/03/21 03:54:45;;;;;;;;;;;;;;;1.26;100.00;100349.97;5030067;28;19947;-68
2023/03/21 03:57:12;;;;;;;;;;;;;;;1.26;100.00;100355.22;5079753;28;19912;-67
2023/03/21 03:59:40;;;;;;;;;;;;;;;1.28;100.00;100357.72;5092490;28;19962;-67
2023/03/21 04:02:05;;;;;;;;;;;;;;;1.30;100.00;100364.53;5092347;28;19919;-69
2023/03/21 04:04:31;;;;;;;;;;;;;;;1.31;100.00;100362.75;5090677;28;19915;-69
2023/03/21 04:06:56;;;;;;;;;;;;;;;1.31;100.00;100371.47;5092439;28;19912;-70
2023/03/21 04:09:22;;;;;;;;;;;;;;;1.34;100.00;100373.84;5092156;28;20333;-66
2023/03/21 04:11:47;;;;;;;;;;;;;;;1.39;100.00;100376.97;5091968;28;20278;-67
2023/03/21 04:14:13;;;;;;;;;;;;;;;1.32;100.00;100386.25;5093625;28;19944;-69
2023/03/21 04:16:38;;;;;;;;;;;;;;;1.34;100.00;100384.34;5096347;28;19938;-67
2023/03/21 04:19:04;;;;;;;;;;;;;;;1.38;100.00;100379.72;5095252;28;19919;-67
2023/03/21 04:21:29;;;;;;;;;;;;;;;1.43;100.00;100386.28;5094742;28;19932;-69
2023/03/21 04:23:55;;;;;;;;;;;;;;;1.52;100.00;100388.25;5096009;28;20073;-69
2023/03/21 04:29:42;;;;;;;;;;;;;;;1.58;100.00;100399.22;5095432;28;19931;-72
2023/03/21 04:32:18;;;;;;;;;;;;;;;1.50;100.00;100394.56;5096636;28;19912;-71
2023/03/21 04:34:55;;;;;;;;;;;;;;;1.50;100.00;100403.28;5098313;28;20419;-67
2023/03/21 04:37:22;;;;;;;;;;;;;;;1.58;100.00;100412.38;5116268;28;20286;-71
2023/03/21 04:39:48;;;;;;;;;;;;;;;1.51;100.00;100412.81;5097827;28;20011;-67
2023/03/21 04:42:17;;;;;;;;;;;;;;;1.48;100.00;100413.06;5116135;28;19973;-69
2023/03/21 04:44:46;;;;;;;;;;;;;;;1.42;100.00;100408.22;5116209;28;20384;-69
2023/03/21 04:47:12;;;;;;;;;;;;;;;1.40;100.00;100415.38;5116139;28;19912;-68
2023/03/21 04:49:38;;;;;;;;;;;;;;;1.43;100.00;100417.78;5115900;28;20010;-67
2023/03/21 04:52:04;;;;;;;;;;;;;;;1.40;100.00;100415.38;5115930;28;20052;-70
2023/03/21 04:54:29;;;;;;;;;;;;;;;1.39;100.00;100418.94;5115933;28;20010;-69
2023/03/21 04:56:54;;;;;;;;;;;;;;;1.46;100.00;100414.94;5115775;28;19911;-68
2023/03/21 04:59:20;;;;;;;;;;;;;;;1.50;100.00;100416.41;5115317;28;19916;-69
2023/03/21 05:01:45;;;;;;;;;;;;;;;1.44;100.00;100427.31;5080642;28;19912;-67
2023/03/21 05:04:12;;;;;;;;;;;;;;;1.42;100.00;100413.47;5115796;28;19912;-68
2023/03/21 05:06:38;;;;;;;;;;;;;;;1.45;100.00;100425.56;5115734;28;20335;-67
2023/03/21 05:09:04;;;;;;;;;;;;;;;1.48;100.00;100428.78;5116480;28;19964;-67
2023/03/21 05:11:30;;;;;;;;;;;;;;;1.53;100.00;100431.91;5115799;28;20425;-68
2023/03/21 05:13:56;;;;;;;;;;;;;;;1.61;100.00;100438.38;5115326;28;19943;-69
2023/03/21 05:16:25;;;;;;;;;;;;;;;1.67;100.00;100433.50;5115464;28;19962;-67
2023/03/21 05:18:52;;;;;;;;;;;;;;;1.71;100.00;100436.75;5115160;28;20404;-69
2023/03/21 05:21:18;;;;;;;;;;;;;;;1.67;100.00;100440.53;5115369;28;19955;-68
2023/03/21 05:23:43;;;;;;;;;;;;;;;1.72;100.00;100441.03;5115141;28;20386;-68
2023/03/21 05:26:09;;;;;;;;;;;;;;;1.74;100.00;100444.41;5114382;28;19963;-67
2023/03/21 05:28:38;;;;;;;;;;;;;;;1.73;100.00;100442.72;5115231;28;19920;-67
2023/03/21 05:31:05;;;;;;;;;;;;;;;1.79;100.00;100447.53;5113747;28;19920;-67
2023/03/21 05:33:30;;;;;;;;;;;;;;;1.65;100.00;100434.56;5114756;27;19920;-68
2023/03/21 05:35:55;;;;;;;;;;;;;;;1.79;100.00;100448.38;5117132;27;19915;-67
2023/03/21 05:38:21;;;;;;;;;;;;;;;1.79;100.00;100448.38;5118334;27;19926;-66
2023/03/21 05:40:47;;;;;;;;;;;;;;;1.87;100.00;100455.66;5126201;27;20282;-66
2023/03/21 05:43:12;;;;;;;;;;;;;;;1.97;100.00;100451.38;5123526;27;19918;-67
2023/03/21 05:45:38;;;;;;;;;;;;;;;2.06;100.00;100448.09;5123965;27;20278;-67
2023/03/21 05:48:03;;;;;;;;;;;;;;;2.08;100.00;100453.22;5128613;27;19960;-65
2023/03/21 05:50:28;;;;;;;;;;;;;;;2.12;100.00;100455.50;5123585;27;19927;-66
2023/03/21 05:52:54;;;;;;;;;;;;;;;2.23;100.00;100466.97;5124964;27;19912;-67
2023/03/21 05:55:19;;;;;;;;;;;;;;;2.23;100.00;100480.13;5125100;27;19980;-67
2023/03/21 05:57:44;;;;;;;;;;;;;;;2.16;100.00;100477.97;5120329;27;19911;-66
2023/03/21 06:00:10;;;;;;;;;;;;;;;2.23;100.00;100477.47;5124916;27;19954;-65
2023/03/21 06:02:36;;;;;;;;;;;;;;;2.31;100.00;100480.34;5127416;27;19912;-66
2023/03/21 06:05:02;;;;;;;;;;;;;;;2.39;100.00;100483.25;5123063;27;19969;-66
2023/03/21 06:07:28;;;;;;;;;;;;;;;2.37;100.00;100479.91;5122466;27;19911;-66
2023/03/21 06:09:54;;;;;;;;;;;;;;;2.43;100.00;100474.19;5124089;27;19958;-65
2023/03/21 06:12:19;;;;;;;;;;;;;;;2.43;100.00;100471.56;5122698;27;19924;-67
2023/03/21 06:14:44;;;;;;;;;;;;;;;2.51;100.00;100471.78;5123156;27;19994;-65
2023/03/21 06:17:10;;;;;;;;;;;;;;;2.49;100.00;100484.22;5124656;27;20288;-70
2023/03/21 06:19:35;;;;;;;;;;;;;;;2.41;100.00;100478.72;5122100;27;19919;-65
2023/03/21 06:22:00;;;;;;;;;;;;;;;2.36;100.00;100479.09;5122092;27;19912;-67
2023/03/21 06:24:26;;;;;;;;;;;;;;;2.30;100.00;100487.41;5119895;27;19911;-67
2023/03/21 06:26:51;;;;;;;;;;;;;;;2.41;100.00;100492.69;5125291;27;20301;-67
2023/03/21 06:29:16;;;;;;;;;;;;;;;2.41;100.00;100497.13;5123429;27;19918;-66
2023/03/21 06:31:42;;;;;;;;;;;;;;;2.41;100.00;100497.97;5124723;27;20350;-66
2023/03/21 06:34:09;;;;;;;;;;;;;;;2.43;100.00;100500.47;5122792;27;19916;-66
2023/03/21 06:36:35;;;;;;;;;;;;;;;2.46;100.00;100505.50;5123057;27;19922;-65
2023/03/21 06:39:00;;;;;;;;;;;;;;;2.48;100.00;100506.22;5124617;27;19911;-65
2023/03/21 06:41:26;;;;;;;;;;;;;;;2.51;100.00;100505.97;5122349;27;19911;-66
2023/03/21 06:43:51;;;;;;;;;;;;;;;2.61;100.00;100514.00;5123916;27;20366;-66
2023/03/21 06:46:16;;;;;;;;;;;;;;;2.75;100.00;100509.34;5121891;27;19912;-66
2023/03/21 06:48:43;;;;;;;;;;;;;;;2.88;100.00;100518.91;5113714;27;20274;-64
2023/03/21 06:51:10;;;;;;;;;;;;;;;2.89;100.00;100512.69;5121693;27;19947;-66
2023/03/21 06:53:35;;;;;;;;;;;;;;;2.92;100.00;100507.22;5121332;27;20351;-66
2023/03/21 06:56:00;;;;;;;;;;;;;;;2.88;100.00;100511.84;5116557;27;19956;-66
2023/03/21 06:58:26;;;;;;;;;;;;;;;2.81;100.00;100521.19;5125746;27;19918;-65
2023/03/21 07:00:52;;;;;;;;;;;;;;;2.83;100.00;100523.69;5125556;27;20006;-67
2023/03/21 07:03:18;;;;;;;;;;;;;;;2.92;100.00;100533.53;5133552;27;20044;-68
2023/03/21 07:05:43;;;;;;;;;;;;;;;2.94;100.00;100529.81;5109354;27;19911;-64
2023/03/21 07:08:12;;;;;;;;;;;;;;;2.91;100.00;100531.84;5125141;27;19916;-66
2023/03/21 07:10:42;;;;;;;;;;;;;;;2.82;100.00;100528.13;5122090;27;19912;-67
2023/03/21 07:13:07;;;;;;;;;;;;;;;2.73;100.00;100534.09;5120044;27;19912;-67
2023/03/21 07:15:36;;;;;;;;;;;;;;;2.69;100.00;100522.97;5113427;28;19919;-65
2023/03/21 07:18:02;;;;;;;;;;;;;;;2.79;100.00;100520.47;5113115;28;19919;-66
2023/03/21 07:20:27;;;;;;;;;;;;;;;2.87;100.00;100527.75;5112889;28;19912;-66
2023/03/21 07:22:53;;;;;;;;;;;;;;;2.90;100.00;100531.00;5112910;28;19991;-66
2023/03/21 07:25:19;;;;;;;;;;;;;;;3.01;100.00;100545.94;5112949;28;20011;-65
2023/03/21 07:27:45;;;;;;;;;;;;;;;3.00;100.00;100546.91;5112964;28;19918;-66
2023/03/21 07:30:11;;;;;;;;;;;;;;;2.86;99.61;100539.22;5113500;27;19911;-67
2023/03/21 07:32:36;;;;;;;;;;;;;;;2.80;100.00;100548.44;5132449;27;19960;-66
2023/03/21 07:35:02;;;;;;;;;;;;;;;2.87;100.00;100546.16;5103197;28;19922;-67
2023/03/21 07:37:27;;;;;;;;;;;;;;;2.99;100.00;100542.59;5112944;28;19983;-67
2023/03/21 07:39:53;;;;;;;;;;;;;;;3.12;100.00;100551.19;5117829;28;19958;-66
2023/03/21 07:42:18;;;;;;;;;;;;;;;3.29;100.00;100544.63;5131288;28;19912;-67
2023/03/21 07:44:43;;;;;;;;;;;;;;;3.33;99.51;100554.78;5132007;27;20129;-67
2023/03/21 07:47:09;;;;;;;;;;;;;;;3.48;98.69;100557.19;5130879;28;19915;-65
2023/03/21 07:49:35;;;;;;;;;;;;;;;3.54;97.99;100548.78;5130396;27;19911;-67
2023/03/21 07:52:01;;;;;;;;;;;;;;;3.57;95.66;100556.44;5112637;28;20351;-66
2023/03/21 07:54:27;;;;;;;;;;;;;;;3.69;96.64;100565.97;5112678;28;19912;-66
2023/03/21 07:56:53;;;;;;;;;;;;;;;3.74;96.69;100555.91;5114274;28;19919;-68
2023/03/21 07:59:18;;;;;;;;;;;;;;;3.92;95.94;100562.31;5112770;28;19912;-65
2023/03/21 08:01:43;;;;;;;;;;;;;;;3.97;94.97;100560.13;5127912;28;19919;-66
2023/03/21 08:04:09;;;;;;;;;;;;;;;3.93;93.31;100573.69;5133359;28;20358;-67
2023/03/21 08:06:34;;;;;;;;;;;;;;;3.85;93.20;100565.59;5135947;28;19915;-66
2023/03/21 08:09:00;;;;;;;;;;;;;;;3.81;94.34;100575.53;5133056;28;19919;-65
2023/03/21 08:11:26;;;;;;;;;;;;;;;3.71;93.93;100569.31;5116928;28;19962;-67
2023/03/21 08:13:52;;;;;;;;;;;;;;;3.73;94.33;100572.66;5113695;28;20268;-66
2023/03/21 08:16:18;;;;;;;;;;;;;;;3.87;93.21;100580.31;5116995;28;19912;-67
2023/03/21 08:18:45;;;;;;;;;;;;;;;3.82;93.33;100577.22;5115156;28;19912;-67
2023/03/21 08:21:10;;;;;;;;;;;;;;;3.77;93.89;100582.00;5133308;28;19915;-67
2023/03/21 08:23:36;;;;;;;;;;;;;;;3.77;93.89;100582.00;5133777;28;19918;-66
2023/03/21 08:26:01;;;;;;;;;;;;;;;3.76;93.34;100582.09;5113730;28;19919;-67
2023/03/21 08:28:27;;;;;;;;;;;;;;;3.74;93.84;100584.88;5113321;28;20014;-67
2023/03/21 08:30:53;;;;;;;;;;;;;;;3.80;93.84;100589.66;5118268;28;19911;-67
2023/03/21 08:33:18;;;;;;;;;;;;;;;3.73;93.87;100589.28;5131867;28;19960;-65
2023/03/21 08:35:44;;;;;;;;;;;;;;;3.78;94.09;100593.38;5123846;28;20006;-66
2023/03/21 08:38:09;;;;;;;;;;;;;;;3.77;93.22;100600.44;5112276;28;20012;-67
2023/03/21 08:40:35;;;;;;;;;;;;;;;3.68;93.73;100606.44;5121538;28;20389;-65
2023/03/21 08:43:00;;;;;;;;;;;;;;;3.55;94.56;100609.22;5130605;28;19911;-66
2023/03/21 08:45:26;;;;;;;;;;;;;;;3.51;94.29;100605.16;5114165;28;20012;-66
2023/03/21 08:47:52;;;;;;;;;;;;;;;3.52;93.77;100611.25;5114553;28;19912;-67
2023/03/21 08:50:18;;;;;;;;;;;;;;;3.63;93.61;100613.88;5112371;28;19912;-67
2023/03/21 08:52:44;;;;;;;;;;;;;;;3.75;92.81;100615.50;5125314;28;20377;-68
2023/03/21 08:55:10;;;;;;;;;;;;;;;3.90;91.22;100611.66;5132889;28;19911;-68
2023/03/21 08:57:36;;;;;;;;;;;;;;;4.09;90.73;100612.81;5132904;28;19919;-69
2023/03/21 09:00:06;;;;;;;;;;;;;;;4.25;89.71;100621.97;5113453;27;19912;-68
2023/03/21 09:02:31;;;;;;;;;;;;;;;4.21;88.71;100615.28;5127434;27;19915;-67
2023/03/21 09:04:57;;;;;;;;;;;;;;;4.35;90.08;100619.44;5126495;27;19911;-68
2023/03/21 09:07:25;;;;;;;;;;;;;;;4.49;88.31;100624.41;5126776;27;20345;-67
2023/03/21 09:09:52;;;;;;;;;;;;;;;4.50;88.95;100619.97;5126060;27;19958;-68
2023/03/21 09:12:17;;;;;;;;;;;;;;;4.56;89.61;100620.28;5125996;27;19919;-68
2023/03/21 09:14:42;;;;;;;;;;;;;;;4.68;90.52;100629.00;5110722;27;19911;-69
2023/03/21 09:17:08;;;;;;;;;;;;;;;4.76;89.95;100631.00;5125947;27;19911;-67
2023/03/21 09:19:33;;;;;;;;;;;;;;;4.86;88.82;100632.72;5124386;27;19912;-67
2023/03/21 09:22:00;;;;;;;;;;;;;;;4.84;87.58;100629.38;5129397;27;19918;-72
2023/03/21 09:24:27;;;;;;;;;;;;;;;4.84;86.21;100633.81;5110964;27;19930;-67
2023/03/21 09:26:53;;;;;;;;;;;;;;;4.73;84.58;100633.88;5123530;27;20266;-66
2023/03/21 09:29:20;;;;;;;;;;;;;;;4.46;84.62;100637.84;5126557;27;20017;-66
2023/03/21 09:31:46;;;;;;;;;;;;;;;4.34;85.50;100641.50;5125909;27;19911;-67
2023/03/21 09:34:13;;;;;;;;;;;;;;;4.20;85.35;100647.03;5123266;27;20362;-67
2023/03/21 09:36:40;;;;;;;;;;;;;;;4.15;85.50;100654.50;5125262;27;19924;-67
2023/03/21 09:39:06;;;;;;;;;;;;;;;4.17;84.39;100660.47;5124559;27;19911;-67
2023/03/21 09:41:34;;;;;;;;;;;;;;;4.21;84.57;100661.91;5132634;27;19911;-66
2023/03/21 09:43:59;;;;;;;;;;;;;;;4.33;82.00;100655.63;5122827;27;20066;-66
2023/03/21 09:46:41;;;;;;;;;;;;;;;4.39;79.40;100668.31;5115135;28;19916;-67
2023/03/21 09:49:16;;;;;;;;;;;;;;;4.34;81.42;100668.69;5097377;28;19936;-68
2023/03/21 09:51:47;;;;;;;;;;;;;;;4.34;81.36;100665.22;5115371;28;19912;-67
2023/03/21 09:54:33;;;;;;;;;;;;;;;4.28;82.45;100669.19;5115878;28;20375;-74
2023/03/21 09:57:02;;;;;;;;;;;;;;;4.19;78.97;100669.09;5115411;28;19922;-72
2023/03/21 09:59:31;;;;;;;;;;;;;;;4.04;79.40;100665.88;5114874;28;19964;-68
2023/03/21 10:01:59;;;;;;;;;;;;;;;3.85;80.40;100663.91;5116230;28;20035;-72
2023/03/21 10:04:26;;;;;;;;;;;;;;;3.95;82.47;100661.34;5119611;28;19912;-67
2023/03/21 10:06:55;;;;;;;;;;;;;;;4.22;82.48;100669.69;5114978;28;19916;-69
2023/03/21 10:09:23;;;;;;;;;;;;;;;4.60;80.46;100674.44;5115173;28;20251;-69
2023/03/21 10:11:57;;;;;;;;;;;;;;;4.69;81.14;100672.03;5114697;28;19916;-70
2023/03/21 10:14:34;;;;;;;;;;;;;;;4.88;79.89;100682.72;5113940;28;19919;-72
2023/03/21 10:17:08;;;;;;;;;;;;;;;5.06;77.80;100683.84;5113490;28;20072;-71
2023/03/21 10:19:33;;;;;;;;;;;;;;;5.11;78.04;100673.72;5113862;28;19919;-69
2023/03/21 10:21:59;;;;;;;;;;;;;;;5.24;76.28;100684.94;5113313;28;20252;-70
2023/03/21 10:24:27;;;;;;;;;;;;;;;5.35;75.20;100684.00;5113245;28;19919;-71
2023/03/21 10:26:53;;;;;;;;;;;;;;;5.44;77.64;100685.00;5114287;28;20064;-72
2023/03/21 10:29:21;;;;;;;;;;;;;;;5.37;76.31;100683.88;5096109;28;20321;-72
2023/03/21 10:31:47;;;;;;;;;;;;;;;5.12;76.34;100678.03;5114168;28;19918;-71
2023/03/21 10:34:26;;;;;;;;;;;;;;;4.88;75.89;100680.09;5114472;28;20006;-72
2023/03/21 10:36:52;;;;;;;;;;;;;;;4.61;71.25;100675.28;5114254;28;19924;-72
2023/03/21 10:39:17;;;;;;;;;;;;;;;4.37;74.25;100678.16;5116076;27;19915;-70
2023/03/21 10:41:42;;;;;;;;;;;;;;;4.33;74.96;100676.72;5134787;27;19918;-73
2023/03/21 10:44:10;;;;;;;;;;;;;;;4.49;76.14;100669.22;5134748;27;19911;-69
2023/03/21 10:46:36;;;;;;;;;;;;;;;4.68;74.75;100687.03;5128624;27;20259;-71
2023/03/21 10:49:01;;;;;;;;;;;;;;;4.80;74.44;100677.25;5114231;28;19912;-68
2023/03/21 10:51:29;;;;;;;;;;;;;;;4.98;73.87;100681.00;5114011;28;19912;-69
2023/03/21 10:53:58;;;;;;;;;;;;;;;4.93;74.02;100684.03;5128558;28;20007;-66
2023/03/21 10:56:28;;;;;;;;;;;;;;;4.72;74.76;100692.88;5126556;28;19918;-67
2023/03/21 10:58:58;;;;;;;;;;;;;;;4.54;75.34;100688.16;5113672;28;19918;-69
2023/03/21 11:01:44;;;;;;;;;;;;;;;4.56;75.86;100683.59;5113573;28;19926;-68
2023/03/21 11:04:14;;;;;;;;;;;;;;;4.80;73.82;100679.91;5113687;28;19920;-67
2023/03/21 11:06:41;;;;;;;;;;;;;;;4.86;71.63;100679.38;5113566;28;19922;-70
2023/03/21 11:09:08;;;;;;;;;;;;;;;4.79;72.29;100679.06;5113594;28;19946;-69
2023/03/21 11:11:37;;;;;;;;;;;;;;;4.79;72.17;100684.34;5113177;28;19969;-68
2023/03/21 11:14:06;;;;;;;;;;;;;;;5.00;70.78;100686.16;5113190;28;19912;-69
2023/03/21 11:16:32;;;;;;;;;;;;;;;5.21;72.55;100685.19;5113458;28;20014;-67
2023/03/21 11:19:01;;;;;;;;;;;;;;;5.33;70.20;100693.88;5116785;28;19958;-68
2023/03/21 11:21:34;;;;;;;;;;;;;;;5.28;71.74;100696.06;5119937;28;19919;-68
2023/03/21 11:23:59;;;;;;;;;;;;;;;5.31;71.16;100694.97;5118075;28;20516;-68
2023/03/21 11:26:36;;;;;;;;;;;;;;;5.52;70.74;100693.97;5113599;28;19912;-69
2023/03/21 11:29:13;;;;;;;;;;;;;;;5.62;68.44;100690.53;5113312;28;19912;-70
2023/03/21 11:31:39;;;;;;;;;;;;;;;5.84;70.53;100696.47;5113535;28;20007;-69
2023/03/21 11:34:05;;;;;;;;;;;;;;;6.01;71.08;100694.19;5113333;28;19954;-70
2023/03/21 11:36:32;;;;;;;;;;;;;;;6.09;72.46;100691.72;5113466;28;19916;-69
2023/03/21 11:39:11;;;;;;;;;;;;;;;5.96;74.48;100694.59;5113306;28;19955;-69
2023/03/21 11:41:38;;;;;;;;;;;;;;;5.46;76.20;100689.19;5094497;28;19918;-68
2023/03/21 11:44:04;;;;;;;;;;;;;;;5.39;76.51;100687.22;5113418;28;19919;-68
2023/03/21 11:46:30;;;;;;;;;;;;;;;5.71;77.19;100687.91;5120991;28;19986;-68
2023/03/21 11:48:57;;;;;;;;;;;;;;;5.79;74.98;100685.47;5123413;28;19925;-69
2023/03/21 11:51:35;;;;;;;;;;;;;;;5.69;75.12;100686.38;5127059;28;20346;-69
2023/03/21 11:54:05;;;;;;;;;;;;;;;5.43;75.69;100688.63;5128199;28;19916;-70
2023/03/21 11:56:39;;;;;;;;;;;;;;;5.11;76.16;100694.84;5134632;28;19919;-70
2023/03/21 11:59:10;;;;;;;;;;;;;;;4.82;77.50;100691.16;5115882;28;20273;-72
2023/03/21 12:01:56;;;;;;;;;;;;;;;4.85;78.17;100688.25;5133979;28;19947;-69
2023/03/21 12:04:38;;;;;;;;;;;;;;;4.93;78.21;100689.31;5133675;28;20386;-70
2023/03/21 12:07:22;;;;;;;;;;;;;;;4.96;78.30;100690.84;5133268;28;19964;-68
2023/03/21 12:10:07;;;;;;;;;;;;;;;5.10;78.21;100682.59;5133299;28;19919;-70
2023/03/21 12:12:32;;;;;;;;;;;;;;;5.12;76.96;100685.94;5133135;28;20286;-69
2023/03/21 12:15:16;;;;;;;;;;;;;;;5.11;76.19;100676.34;5132962;28;19919;-68
2023/03/21 12:18:05;;;;;;;;;;;;;;;4.95;76.68;100689.19;5133546;28;19934;-70
2023/03/21 12:20:30;;;;;;;;;;;;;;;4.84;77.94;100692.69;5133587;28;19912;-69
2023/03/21 12:23:05;;;;;;;;;;;;;;;4.84;78.33;100702.41;5133235;28;19971;-69
2023/03/21 12:25:32;;;;;;;;;;;;;;;4.68;78.94;100691.47;5133786;28;20398;-69
2023/03/21 12:28:16;;;;;;;;;;;;;;;4.58;79.63;100700.13;5133864;28;19911;-69
2023/03/21 12:30:59;;;;;;;;;;;;;;;4.75;80.12;100697.91;5133346;28;19918;-69
2023/03/21 12:33:35;;;;;;;;;;;;;;;4.77;80.42;100695.97;5132823;28;20070;-69
2023/03/21 12:36:01;;;;;;;;;;;;;;;4.53;81.15;100697.03;5135441;27;19923;-69
2023/03/21 12:38:42;;;;;;;;;;;;;;;4.38;82.78;100700.09;5118761;27;20275;-69
2023/03/21 12:41:26;;;;;;;;;;;;;;;4.24;82.37;100693.28;5136710;27;19911;-69
2023/03/21 12:44:00;;;;;;;;;;;;;;;4.26;82.11;100702.75;5118166;27;19955;-69
2023/03/21 12:46:25;;;;;;;;;;;;;;;4.32;82.54;100701.41;5136671;27;19911;-69
2023/03/21 12:49:09;;;;;;;;;;;;;;;4.22;82.71;100703.13;5136706;27;19919;-68
2023/03/21 12:51:40;;;;;;;;;;;;;;;4.30;81.97;100708.59;5136537;27;19915;-70
2023/03/21 12:54:12;;;;;;;;;;;;;;;4.34;81.24;100705.63;5136236;27;20355;-69